createdAt,value
2022-10-19T00:00:16.031Z,11.42
2022-10-19T00:03:07.561Z,11.39
2022-10-19T00:05:40.088Z,11.37
2022-10-19T00:08:11.652Z,11.36
2022-10-19T00:10:47.028Z,11.39
2022-10-19T00:13:18.596Z,11.42
2022-10-19T00:15:50.235Z,11.44
2022-10-19T00:18:21.858Z,11.45
2022-10-19T00:20:55.026Z,11.46
2022-10-19T00:23:26.579Z,11.44
2022-10-19T00:25:59.450Z,11.45
2022-10-19T00:28:31.595Z,11.43
2022-10-19T00:31:10.451Z,11.43
2022-10-19T00:33:43.105Z,11.39
2022-10-19T00:36:21.575Z,11.38
2022-10-19T00:38:54.052Z,11.38
2022-10-19T00:41:35.560Z,11.37
2022-10-19T00:44:16.397Z,11.36
2022-10-19T00:46:49.677Z,11.35
2022-10-19T00:49:25.014Z,11.37
2022-10-19T00:52:01.896Z,11.39
2022-10-19T00:54:43.393Z,11.39
2022-10-19T00:57:15.911Z,11.38
2022-10-19T00:59:48.676Z,11.37
2022-10-19T01:02:21.927Z,11.34
2022-10-19T01:04:54.844Z,11.29
2022-10-19T01:07:27.878Z,11.29
2022-10-19T01:10:00.420Z,11.28
2022-10-19T01:12:50.345Z,11.29
2022-10-19T01:15:32.269Z,11.32
2022-10-19T01:18:14.395Z,11.33
2022-10-19T01:21:16.429Z,11.32
2022-10-19T01:24:27.136Z,11.31
2022-10-19T01:27:36.532Z,11.29
2022-10-19T01:30:24.241Z,11.24
2022-10-19T01:33:04.097Z,11.22
2022-10-19T01:35:46.447Z,11.21
2022-10-19T01:38:30.766Z,11.20
2022-10-19T01:41:14.928Z,11.21
2022-10-19T01:43:53.116Z,11.22
2022-10-19T01:46:30.352Z,11.20
2022-10-19T01:49:07.119Z,11.19
2022-10-19T01:51:46.582Z,11.19
2022-10-19T01:54:20.713Z,11.18
2022-10-19T01:56:55.199Z,11.19
2022-10-19T01:59:27.441Z,11.17
2022-10-19T02:02:03.220Z,11.18
2022-10-19T02:04:36.819Z,11.17
2022-10-19T02:07:09.385Z,11.20
2022-10-19T02:09:40.947Z,11.23
2022-10-19T02:12:16.920Z,11.24
2022-10-19T02:14:52.075Z,11.21
2022-10-19T02:17:28.442Z,11.20
2022-10-19T02:20:01.663Z,11.19
2022-10-19T02:22:35.446Z,11.20
2022-10-19T02:25:09.498Z,11.18
2022-10-19T02:27:42.935Z,11.16
2022-10-19T02:30:17.667Z,11.15
2022-10-19T02:32:53.843Z,11.12
2022-10-19T02:35:25.400Z,11.08
2022-10-19T02:38:00.084Z,11.10
2022-10-19T02:40:39.389Z,11.12
2022-10-19T02:43:17.820Z,11.12
2022-10-19T02:45:57.308Z,11.10
2022-10-19T02:48:31.452Z,11.10
2022-10-19T02:51:03.274Z,11.08
2022-10-19T02:53:37.987Z,11.07
2022-10-19T02:56:12.132Z,11.06
2022-10-19T02:58:44.552Z,11.04
2022-10-19T03:01:16.163Z,11.05
2022-10-19T03:03:48.688Z,11.05
2022-10-19T03:06:20.416Z,11.06
2022-10-19T03:08:52.046Z,11.04
2022-10-19T03:11:27.067Z,11.04
2022-10-19T03:13:59.459Z,11.03
2022-10-19T03:16:30.987Z,11.03
2022-10-19T03:19:02.608Z,11.03
2022-10-19T03:21:34.914Z,11.02
2022-10-19T03:24:10.647Z,11.01
2022-10-19T03:26:42.204Z,11.03
2022-10-19T03:29:13.727Z,11.03
2022-10-19T03:31:45.337Z,11.02
2022-10-19T03:34:17.848Z,11.01
2022-10-19T03:36:49.406Z,11.02
2022-10-19T03:39:21.028Z,10.99
2022-10-19T03:41:55.800Z,10.97
2022-10-19T03:44:28.487Z,10.95
2022-10-19T03:47:00.152Z,10.96
2022-10-19T03:49:32.978Z,10.97
2022-10-19T03:52:06.425Z,10.99
2022-10-19T03:54:38.094Z,10.99
2022-10-19T03:57:09.697Z,10.98
2022-10-19T03:59:41.292Z,10.94
2022-10-19T04:02:12.860Z,10.93
2022-10-19T04:04:45.221Z,10.90
2022-10-19T04:07:16.743Z,10.88
2022-10-19T04:09:48.338Z,10.88
2022-10-19T04:12:19.858Z,10.88
2022-10-19T04:14:56.831Z,10.88
2022-10-19T04:17:29.474Z,10.87
2022-10-19T04:20:01.185Z,10.88
2022-10-19T04:22:32.999Z,10.90
2022-10-19T04:25:06.608Z,10.92
2022-10-19T04:27:38.122Z,10.93
2022-10-19T04:30:18.199Z,10.92
2022-10-19T04:32:54.189Z,10.91
2022-10-19T04:35:25.783Z,10.88
2022-10-19T04:37:57.343Z,10.87
2022-10-19T04:40:31.578Z,10.86
2022-10-19T04:43:03.203Z,10.87
2022-10-19T04:45:36.310Z,10.88
2022-10-19T04:48:08.307Z,10.85
2022-10-19T04:50:42.298Z,10.83
2022-10-19T04:53:13.874Z,10.80
2022-10-19T04:55:45.644Z,10.79
2022-10-19T04:58:17.203Z,10.79
2022-10-19T05:00:50.741Z,10.79
2022-10-19T05:03:22.419Z,10.79
2022-10-19T05:05:54.018Z,10.76
2022-10-19T05:08:25.620Z,10.74
2022-10-19T05:11:02.859Z,10.73
2022-10-19T05:13:35.374Z,10.74
2022-10-19T05:16:08.982Z,10.74
2022-10-19T05:18:41.470Z,10.72
2022-10-19T05:21:15.681Z,10.73
2022-10-19T05:23:47.494Z,10.72
2022-10-19T05:26:20.932Z,10.74
2022-10-19T05:28:56.759Z,10.74
2022-10-19T05:31:32.520Z,10.71
2022-10-19T05:34:05.078Z,10.67
2022-10-19T05:36:38.783Z,10.63
2022-10-19T05:39:14.011Z,10.63
2022-10-19T05:41:48.878Z,10.60
2022-10-19T05:44:22.333Z,10.58
2022-10-19T05:47:00.697Z,10.54
2022-10-19T05:49:32.611Z,10.51
2022-10-19T05:52:04.371Z,10.50
2022-10-19T05:54:39.787Z,10.49
2022-10-19T05:57:11.608Z,10.50
2022-10-19T05:59:51.147Z,10.50
2022-10-19T06:02:36.499Z,10.52
2022-10-19T06:05:10.833Z,10.53
2022-10-19T06:07:42.438Z,10.54
2022-10-19T06:10:14.117Z,10.57
2022-10-19T06:12:46.447Z,10.58
2022-10-19T06:15:18.255Z,10.63
2022-10-19T06:17:49.915Z,10.68
2022-10-19T06:20:21.959Z,10.70
2022-10-19T06:22:53.633Z,10.73
2022-10-19T06:25:25.238Z,10.80
2022-10-19T06:27:57.295Z,10.86
2022-10-19T06:30:29.590Z,10.94
2022-10-19T06:35:35.600Z,11.00
2022-10-19T06:38:07.895Z,10.95
2022-10-19T06:40:52.668Z,10.92
2022-10-19T06:43:39.236Z,10.87
2022-10-19T06:46:13.103Z,10.82
2022-10-19T06:48:44.867Z,10.80
2022-10-19T06:51:16.748Z,10.79
2022-10-19T06:53:52.892Z,10.83
2022-10-19T06:56:28.554Z,10.89
2022-10-19T06:59:00.636Z,10.92
2022-10-19T07:01:32.704Z,10.99
2022-10-19T07:04:04.325Z,11.05
2022-10-19T07:06:35.887Z,11.14
2022-10-19T07:09:07.600Z,11.22
2022-10-19T07:11:43.582Z,11.36
2022-10-19T07:14:17.619Z,11.52
2022-10-19T07:16:50.561Z,11.67
2022-10-19T07:19:22.950Z,11.83
2022-10-19T07:21:55.044Z,11.89
2022-10-19T07:24:27.392Z,11.85
2022-10-19T07:26:59.066Z,11.88
2022-10-19T07:29:33.447Z,11.97
2022-10-19T07:32:08.925Z,12.02
2022-10-19T07:34:41.803Z,12.04
2022-10-19T07:37:13.338Z,12.06
2022-10-19T07:39:44.931Z,12.11
2022-10-19T07:42:16.561Z,12.13
2022-10-19T07:44:49.415Z,12.13
2022-10-19T07:47:21.067Z,12.12
2022-10-19T07:49:53.228Z,12.10
2022-10-19T07:52:24.776Z,12.14
2022-10-19T07:54:56.461Z,12.18
2022-10-19T07:57:28.010Z,12.19
2022-10-19T07:59:59.559Z,12.27
2022-10-19T08:02:39.606Z,12.47
2022-10-19T08:05:22.876Z,12.64
2022-10-19T08:07:54.478Z,12.65
2022-10-19T08:10:26.413Z,12.69
2022-10-19T08:12:58.039Z,12.73
2022-10-19T08:15:33.411Z,12.70
2022-10-19T08:18:05.091Z,12.70
2022-10-19T08:20:36.703Z,12.62
2022-10-19T08:23:08.257Z,12.53
2022-10-19T08:25:39.879Z,12.48
2022-10-19T08:28:11.588Z,12.46
2022-10-19T08:30:43.251Z,12.44
2022-10-19T08:33:15.372Z,12.47
2022-10-19T08:35:46.951Z,12.54
2022-10-19T08:38:18.489Z,12.64
2022-10-19T08:40:50.125Z,12.82
2022-10-19T08:43:30.281Z,12.94
2022-10-19T08:46:11.024Z,13.05
2022-10-19T08:48:44.043Z,13.11
2022-10-19T08:51:16.384Z,13.15
2022-10-19T08:53:54.577Z,13.19
2022-10-19T08:56:51.454Z,13.15
2022-10-19T08:59:34.553Z,13.10
2022-10-19T09:02:17.461Z,13.12
2022-10-19T09:05:15.138Z,13.16
2022-10-19T09:07:55.851Z,13.20
2022-10-19T09:10:30.340Z,13.29
2022-10-19T09:13:05.119Z,13.39
2022-10-19T09:15:42.022Z,13.42
2022-10-19T09:18:21.154Z,13.39
2022-10-19T09:20:54.334Z,13.34
2022-10-19T09:23:30.858Z,13.26
2022-10-19T09:26:02.564Z,13.29
2022-10-19T09:28:48.349Z,13.32
2022-10-19T09:31:31.489Z,13.37
2022-10-19T09:34:07.605Z,13.37
2022-10-19T09:36:50.937Z,13.42
2022-10-19T09:39:25.702Z,13.54
2022-10-19T09:42:05.240Z,13.57
2022-10-19T09:44:37.169Z,13.52
2022-10-19T09:47:27.365Z,13.46
2022-10-19T09:50:20.380Z,13.42
2022-10-19T09:52:53.783Z,13.43
2022-10-19T09:55:38.055Z,13.43
2022-10-19T09:58:21.045Z,13.45
2022-10-19T10:00:55.284Z,13.38
2022-10-19T10:03:30.752Z,13.25
2022-10-19T10:06:05.926Z,13.14
2022-10-19T10:08:40.616Z,13.10
2022-10-19T10:11:15.505Z,13.13
2022-10-19T10:13:51.914Z,13.22
2022-10-19T10:16:26.653Z,13.35
2022-10-19T10:19:01.953Z,13.40
2022-10-19T10:21:37.585Z,13.48
2022-10-19T10:24:21.907Z,13.53
2022-10-19T10:26:55.505Z,13.56
2022-10-19T10:29:29.126Z,13.53
2022-10-19T10:32:05.678Z,13.54
2022-10-19T10:34:59.988Z,13.57
2022-10-19T10:37:39.288Z,13.63
2022-10-19T10:40:23.610Z,13.75
2022-10-19T10:42:58.578Z,13.86
2022-10-19T10:45:35.003Z,13.96
2022-10-19T10:48:21.573Z,14.02
2022-10-19T10:50:53.309Z,14.17
2022-10-19T10:53:47.840Z,14.25
2022-10-19T10:56:28.269Z,14.26
2022-10-19T10:59:06.006Z,14.31
2022-10-19T11:01:41.707Z,14.32
2022-10-19T11:04:18.694Z,14.36
2022-10-19T11:06:56.848Z,14.35
2022-10-19T11:09:36.190Z,14.30
2022-10-19T11:12:13.659Z,14.21
2022-10-19T11:14:55.058Z,14.11
2022-10-19T11:17:30.802Z,14.05
2022-10-19T11:20:02.409Z,14.02
2022-10-19T11:22:41.737Z,14.05
2022-10-19T11:25:30.901Z,14.06
2022-10-19T11:28:15.291Z,14.03
2022-10-19T11:30:58.516Z,14.11
2022-10-19T11:33:45.097Z,14.30
2022-10-19T11:36:33.293Z,14.30
2022-10-19T11:39:19.903Z,14.30
2022-10-19T11:42:01.935Z,14.43
2022-10-19T11:44:47.151Z,14.67
2022-10-19T11:47:35.151Z,14.82
2022-10-19T11:50:19.271Z,14.72
2022-10-19T11:52:59.683Z,14.67
2022-10-19T11:55:40.936Z,14.75
2022-10-19T11:58:34.631Z,14.66
2022-10-19T12:01:18.333Z,14.58
2022-10-19T12:04:24.989Z,14.44
2022-10-19T12:07:05.870Z,14.10
2022-10-19T12:09:51.413Z,13.91
2022-10-19T12:12:30.865Z,13.64
2022-10-19T12:15:20.622Z,13.36
2022-10-19T12:17:55.009Z,13.22
2022-10-19T12:20:32.208Z,13.16
2022-10-19T12:23:12.684Z,13.23
2022-10-19T12:25:46.724Z,13.37
2022-10-19T12:28:25.808Z,13.26
2022-10-19T12:30:59.113Z,13.19
2022-10-19T12:33:42.622Z,13.15
2022-10-19T12:36:23.672Z,13.12
2022-10-19T12:39:00.009Z,13.17
2022-10-19T12:41:40.959Z,13.33
2022-10-19T12:44:30.222Z,13.42
2022-10-19T12:47:10.831Z,13.55
2022-10-19T12:49:50.441Z,13.77
2022-10-19T12:52:39.899Z,14.01
2022-10-19T12:55:34.634Z,14.21
2022-10-19T12:58:16.572Z,14.24
2022-10-19T13:01:00.787Z,14.29
2022-10-19T13:03:35.191Z,14.48
2022-10-19T13:06:12.801Z,14.70
2022-10-19T13:08:48.754Z,14.75
2022-10-19T13:11:21.016Z,14.77
2022-10-19T13:14:30.405Z,15.02
2022-10-19T13:17:03.231Z,15.34
2022-10-19T13:19:35.169Z,15.52
2022-10-19T13:22:28.712Z,15.63
2022-10-19T13:25:27.971Z,15.65
2022-10-19T13:28:03.431Z,15.77
2022-10-19T13:31:06.201Z,15.82
2022-10-19T13:33:50.355Z,15.62
2022-10-19T13:36:24.019Z,15.52
2022-10-19T13:39:14.287Z,15.63
2022-10-19T13:41:56.452Z,15.66
2022-10-19T13:44:31.032Z,15.74
2022-10-19T13:47:28.597Z,15.65
2022-10-19T13:50:17.917Z,15.68
2022-10-19T13:53:27.343Z,15.80
2022-10-19T13:56:17.704Z,15.86
2022-10-19T13:59:23.586Z,15.88
2022-10-19T14:02:20.384Z,15.74
2022-10-19T14:05:05.308Z,15.52
2022-10-19T14:07:48.305Z,15.16
2022-10-19T14:10:25.095Z,14.84
2022-10-19T14:13:07.965Z,14.51
2022-10-19T14:15:39.708Z,14.29
2022-10-19T14:18:26.209Z,14.11
2022-10-19T14:21:02.591Z,13.91
2022-10-19T14:23:35.833Z,13.78
2022-10-19T14:26:15.000Z,13.69
2022-10-19T14:28:46.729Z,13.61
2022-10-19T14:31:23.688Z,13.56
2022-10-19T14:34:05.843Z,13.53
2022-10-19T14:36:40.576Z,13.50
2022-10-19T14:39:25.586Z,13.51
2022-10-19T14:41:59.435Z,13.67
2022-10-19T14:44:39.755Z,13.83
2022-10-19T14:47:20.595Z,13.89
2022-10-19T14:49:52.479Z,13.94
2022-10-19T14:52:34.257Z,13.97
2022-10-19T14:55:14.039Z,13.97
2022-10-19T14:57:52.854Z,13.93
2022-10-19T15:03:05.833Z,13.76
2022-10-19T15:05:42.571Z,13.66
2022-10-19T15:08:21.307Z,13.58
2022-10-19T15:10:53.283Z,13.48
2022-10-19T15:13:30.118Z,13.33
2022-10-19T15:16:02.068Z,13.17
2022-10-19T15:18:55.664Z,13.01
2022-10-19T15:21:30.348Z,12.86
2022-10-19T15:24:22.780Z,12.73
2022-10-19T15:27:08.784Z,12.56
2022-10-19T15:29:41.105Z,12.44
2022-10-19T15:32:24.811Z,12.34
2022-10-19T15:34:56.728Z,12.18
2022-10-19T15:37:28.555Z,12.05
2022-10-19T15:40:10.259Z,11.96
2022-10-19T15:42:44.539Z,11.86
2022-10-19T15:45:37.287Z,11.74
2022-10-19T15:48:30.157Z,11.61
2022-10-19T15:51:01.891Z,11.51
2022-10-19T15:53:33.417Z,11.43
2022-10-19T15:56:05.184Z,11.37
2022-10-19T15:58:36.928Z,11.28
2022-10-19T16:01:16.030Z,11.21
2022-10-19T16:03:47.943Z,11.15
2022-10-19T16:06:20.652Z,11.09
2022-10-19T16:08:54.208Z,11.05
2022-10-19T16:11:26.335Z,10.98
2022-10-19T16:13:57.977Z,10.92
2022-10-19T16:16:32.159Z,10.81
2022-10-19T16:19:05.697Z,10.70
2022-10-19T16:21:38.993Z,10.61
2022-10-19T16:24:11.002Z,10.52
2022-10-19T16:26:43.386Z,10.44
2022-10-19T16:29:14.920Z,10.39
2022-10-19T16:31:46.563Z,10.33
2022-10-19T16:34:18.331Z,10.27
2022-10-19T16:36:50.227Z,10.19
2022-10-19T16:39:22.029Z,10.14
2022-10-19T16:41:53.686Z,10.08
2022-10-19T16:44:25.697Z,10.02
2022-10-19T16:46:58.499Z,9.96
2022-10-19T16:49:30.396Z,9.92
2022-10-19T16:52:02.243Z,9.88
2022-10-19T16:54:33.929Z,9.82
2022-10-19T16:57:09.643Z,9.79
2022-10-19T16:59:41.655Z,9.75
2022-10-19T17:02:14.385Z,9.70
2022-10-19T17:04:45.971Z,9.65
2022-10-19T17:07:17.998Z,9.61
2022-10-19T17:09:52.164Z,9.55
2022-10-19T17:12:26.306Z,9.50
2022-10-19T17:15:11.533Z,9.46
2022-10-19T17:17:49.506Z,9.40
2022-10-19T17:20:21.134Z,9.37
2022-10-19T17:22:55.278Z,9.36
2022-10-19T17:25:26.908Z,9.33
2022-10-19T17:27:58.572Z,9.29
2022-10-19T17:30:30.221Z,9.25
2022-10-19T17:33:01.802Z,9.21
2022-10-19T17:35:34.664Z,9.19
2022-10-19T17:38:06.259Z,9.18
2022-10-19T17:40:37.831Z,9.13
2022-10-19T17:43:11.705Z,9.08
2022-10-19T17:48:19.761Z,8.94
2022-10-19T17:51:00.298Z,8.86
2022-10-19T17:53:33.251Z,8.77
2022-10-19T17:56:07.667Z,8.68
2022-10-19T17:58:40.093Z,8.63
2022-10-19T18:01:13.015Z,8.58
2022-10-19T18:03:44.942Z,8.53
2022-10-19T18:06:18.458Z,8.48
2022-10-19T18:08:53.089Z,8.44
2022-10-19T18:11:26.194Z,8.42
2022-10-19T18:14:00.879Z,8.39
2022-10-19T18:16:35.206Z,8.36
2022-10-19T18:19:07.657Z,8.32
2022-10-19T18:21:41.247Z,8.29
2022-10-19T18:24:16.884Z,8.26
2022-10-19T18:26:49.528Z,8.22
2022-10-19T18:29:23.033Z,8.18
2022-10-19T18:31:55.445Z,8.12
2022-10-19T18:34:28.503Z,8.09
2022-10-19T18:37:00.315Z,8.05
2022-10-19T18:39:32.069Z,8.03
2022-10-19T18:42:03.803Z,8.02
2022-10-19T18:44:36.283Z,7.99
2022-10-19T18:47:07.996Z,7.98
2022-10-19T18:49:39.778Z,7.97
2022-10-19T18:52:11.448Z,7.98
2022-10-19T18:54:42.992Z,7.95
2022-10-19T18:57:14.580Z,7.93
2022-10-19T18:59:47.109Z,7.93
2022-10-19T19:02:22.700Z,7.91
2022-10-19T19:04:54.833Z,7.93
2022-10-19T19:07:26.660Z,7.91
2022-10-19T19:09:58.435Z,7.91
2022-10-19T19:12:31.192Z,7.90
2022-10-19T19:15:02.977Z,7.91
2022-10-19T19:17:34.597Z,7.91
2022-10-19T19:20:16.708Z,7.86
2022-10-19T19:22:51.999Z,7.83
2022-10-19T19:25:23.614Z,7.81
2022-10-19T19:27:55.224Z,7.82
2022-10-19T19:30:31.227Z,7.82
2022-10-19T19:33:03.738Z,7.81
2022-10-19T19:35:35.315Z,7.76
2022-10-19T19:38:06.982Z,7.70
2022-10-19T19:40:43.283Z,7.66
2022-10-19T19:43:16.046Z,7.64
2022-10-19T19:46:00.885Z,7.62
2022-10-19T19:48:34.917Z,7.61
2022-10-19T19:51:08.521Z,7.59
2022-10-19T19:53:41.003Z,7.58
2022-10-19T19:56:14.690Z,7.54
2022-10-19T19:58:47.531Z,7.49
2022-10-19T20:01:22.624Z,7.44
2022-10-19T20:03:54.628Z,7.43
2022-10-19T20:06:26.319Z,7.41
2022-10-19T20:08:58.412Z,7.38
2022-10-19T20:11:31.800Z,7.36
2022-10-19T20:14:03.388Z,7.34
2022-10-19T20:16:35.089Z,7.33
2022-10-19T20:19:09.906Z,7.29
2022-10-19T20:21:42.006Z,7.25
2022-10-19T20:24:13.567Z,7.21
2022-10-19T20:26:45.301Z,7.18
2022-10-19T20:29:16.957Z,7.14
2022-10-19T20:31:49.337Z,7.08
2022-10-19T20:34:21.916Z,7.04
2022-10-19T20:36:55.589Z,7.02
2022-10-19T20:39:27.204Z,6.99
2022-10-19T20:42:00.406Z,6.97
2022-10-19T20:44:31.948Z,6.93
2022-10-19T20:47:04.327Z,6.88
2022-10-19T20:49:35.943Z,6.84
2022-10-19T20:52:08.009Z,6.82
2022-10-19T20:54:39.586Z,6.80
2022-10-19T20:57:11.151Z,6.78
2022-10-19T20:59:44.054Z,6.75
2022-10-19T21:02:16.494Z,6.71
2022-10-19T21:04:48.045Z,6.67
2022-10-19T21:07:19.550Z,6.65
2022-10-19T21:09:51.066Z,6.63
2022-10-19T21:12:24.242Z,6.58
2022-10-19T21:14:55.794Z,6.54
2022-10-19T21:17:27.456Z,6.52
2022-10-19T21:19:58.960Z,6.51
2022-10-19T21:22:34.479Z,6.48
2022-10-19T21:25:11.622Z,6.43
2022-10-19T21:27:43.282Z,6.36
2022-10-19T21:30:20.391Z,6.27
2022-10-19T21:32:51.976Z,6.24
2022-10-19T21:35:23.522Z,6.24
2022-10-19T21:37:55.111Z,6.22
2022-10-19T21:40:26.643Z,6.17
2022-10-19T21:42:58.239Z,6.13
2022-10-19T21:45:30.791Z,6.11
2022-10-19T21:48:02.651Z,6.08
2022-10-19T21:50:34.187Z,6.03
2022-10-19T21:53:06.551Z,6.02
2022-10-19T21:55:38.706Z,6.00
2022-10-19T21:58:10.237Z,5.99
2022-10-19T22:00:41.868Z,5.95
2022-10-19T22:03:16.838Z,5.93
2022-10-19T22:05:56.948Z,5.90
2022-10-19T22:08:29.463Z,5.86
2022-10-19T22:11:04.816Z,5.82
2022-10-19T22:13:37.661Z,5.76
2022-10-19T22:16:10.850Z,5.75
2022-10-19T22:18:49.502Z,5.67
2022-10-19T22:21:23.240Z,5.62
2022-10-19T22:23:57.428Z,5.61
2022-10-19T22:26:30.680Z,5.61
2022-10-19T22:29:03.351Z,5.60
2022-10-19T22:31:35.518Z,5.59
2022-10-19T22:34:10.433Z,5.58
2022-10-19T22:36:42.024Z,5.50
2022-10-19T22:39:14.584Z,5.40
2022-10-19T22:41:46.286Z,5.30
2022-10-19T22:44:18.896Z,5.15
2022-10-19T22:46:50.616Z,5.03
2022-10-19T22:49:22.389Z,4.99
2022-10-19T22:51:54.084Z,5.01
2022-10-19T22:54:27.503Z,4.99
2022-10-19T22:56:59.265Z,4.96
2022-10-19T22:59:31.038Z,4.95
2022-10-19T23:02:02.899Z,4.89
2022-10-19T23:04:36.091Z,4.84
2022-10-19T23:07:07.829Z,4.77
2022-10-19T23:09:39.889Z,4.61
2022-10-19T23:12:11.603Z,4.50
2022-10-19T23:14:45.799Z,4.50
2022-10-19T23:17:17.869Z,4.57
2022-10-19T23:19:49.794Z,4.66
2022-10-19T23:22:21.686Z,4.63
2022-10-19T23:24:54.298Z,4.53
2022-10-19T23:27:26.484Z,4.48
2022-10-19T23:29:59.020Z,4.55
2022-10-19T23:32:30.817Z,4.62
2022-10-19T23:35:03.518Z,4.67
2022-10-19T23:37:36.774Z,4.70
2022-10-19T23:40:21.511Z,4.68
2022-10-19T23:42:53.214Z,4.65
2022-10-19T23:45:25.125Z,4.68
2022-10-19T23:47:56.871Z,4.72
2022-10-19T23:50:31.861Z,4.75
2022-10-19T23:53:03.559Z,4.77
2022-10-19T23:55:36.133Z,4.75
2022-10-19T23:58:07.883Z,4.62
